createdAt,value
2023-03-02T00:01:45.679Z,17.38
2023-03-02T00:06:42.213Z,15.18
2023-03-02T00:11:39.127Z,14.43
2023-03-02T00:16:35.559Z,15.07
2023-03-02T00:21:32.073Z,13.85
2023-03-02T00:26:28.541Z,14.07
2023-03-02T00:31:25.037Z,13.85
2023-03-02T00:36:23.276Z,14.73
2023-03-02T00:41:21.870Z,15.40
2023-03-02T00:46:21.029Z,14.18
2023-03-02T00:51:18.937Z,13.02
2023-03-02T00:56:15.414Z,14.73
2023-03-02T01:01:12.806Z,14.38
2023-03-02T01:06:16.393Z,14.45
2023-03-02T01:11:18.425Z,12.85
2023-03-02T01:16:14.953Z,13.25
2023-03-02T01:21:14.218Z,14.05
2023-03-02T01:26:11.589Z,14.75
2023-03-02T01:31:08.106Z,14.20
2023-03-02T01:36:04.876Z,13.80
2023-03-02T01:41:01.332Z,13.65
2023-03-02T01:46:07.033Z,13.10
2023-03-02T01:51:05.225Z,13.63
2023-03-02T01:56:03.557Z,13.38
2023-03-02T02:01:00.772Z,12.25
2023-03-02T02:06:08.227Z,13.55
2023-03-02T02:11:06.461Z,12.98
2023-03-02T02:16:03.506Z,13.15
2023-03-02T02:20:59.908Z,13.73
2023-03-02T02:25:59.830Z,14.73
2023-03-02T02:31:10.102Z,14.30
2023-03-02T02:36:12.926Z,14.70
2023-03-02T02:41:18.387Z,14.38
2023-03-02T02:46:15.615Z,13.60
2023-03-02T02:51:20.091Z,12.88
2023-03-02T02:56:17.290Z,13.68
2023-03-02T03:01:25.254Z,14.00
2023-03-02T03:06:38.071Z,12.70
2023-03-02T03:11:36.693Z,13.98
2023-03-02T03:16:34.458Z,14.18
2023-03-02T03:21:31.180Z,13.98
2023-03-02T03:26:27.943Z,13.30
2023-03-02T03:31:26.849Z,11.55
2023-03-02T03:36:23.374Z,11.80
2023-03-02T03:41:20.078Z,12.50
2023-03-02T03:46:16.932Z,13.38
2023-03-02T03:51:14.312Z,12.13
2023-03-02T03:56:10.799Z,11.45
2023-03-02T04:01:07.224Z,11.40
2023-03-02T04:06:03.738Z,11.75
2023-03-02T04:11:00.203Z,14.00
2023-03-02T04:15:56.626Z,13.90
2023-03-02T04:20:53.024Z,13.57
2023-03-02T04:25:49.497Z,13.50
2023-03-02T04:30:45.984Z,13.15
2023-03-02T04:35:42.415Z,14.18
2023-03-02T04:40:39.369Z,12.77
2023-03-02T04:45:35.874Z,12.88
2023-03-02T04:50:32.530Z,14.20
2023-03-02T04:55:29.045Z,12.15
2023-03-02T05:00:25.511Z,12.25
2023-03-02T05:05:24.693Z,13.05
2023-03-02T05:10:22.821Z,13.57
2023-03-02T05:15:19.208Z,14.18
2023-03-02T05:20:15.964Z,13.45
2023-03-02T05:25:12.465Z,13.05
2023-03-02T05:30:09.478Z,14.88
2023-03-02T05:35:06.599Z,14.90
2023-03-02T05:40:03.690Z,15.77
2023-03-02T05:45:00.130Z,13.82
2023-03-02T05:49:56.701Z,14.32
2023-03-02T05:54:53.185Z,15.45
2023-03-02T05:59:50.831Z,15.85
2023-03-02T06:04:47.313Z,16.13
2023-03-02T06:09:43.697Z,15.63
2023-03-02T06:14:40.228Z,15.90
2023-03-02T06:19:36.731Z,16.75
2023-03-02T06:24:33.265Z,16.40
2023-03-02T06:29:29.702Z,18.05
2023-03-02T06:34:26.283Z,16.17
2023-03-02T06:39:23.243Z,16.45
2023-03-02T06:44:19.751Z,16.80
2023-03-02T06:49:16.241Z,16.90
2023-03-02T06:54:12.812Z,16.40
2023-03-02T06:59:09.256Z,16.60
2023-03-02T07:04:05.825Z,16.20
2023-03-02T07:09:02.490Z,16.35
2023-03-02T07:14:02.308Z,17.83
2023-03-02T07:18:58.933Z,16.75
2023-03-02T07:23:55.628Z,19.15
2023-03-02T07:28:52.651Z,15.73
2023-03-02T07:33:49.072Z,16.02
2023-03-02T07:38:45.479Z,16.92
2023-03-02T07:43:41.962Z,16.52
2023-03-02T07:48:38.465Z,15.98
2023-03-02T07:53:34.923Z,16.50
2023-03-02T07:58:31.744Z,15.90
2023-03-02T08:03:28.405Z,18.15
2023-03-02T08:08:24.850Z,15.82
2023-03-02T08:13:21.268Z,15.38
2023-03-02T08:18:17.703Z,15.35
2023-03-02T08:23:14.091Z,15.18
2023-03-02T08:28:10.633Z,16.25
2023-03-02T08:33:07.363Z,15.98
2023-03-02T08:38:03.793Z,17.70
2023-03-02T08:43:00.218Z,17.42
2023-03-02T08:47:56.674Z,17.25
2023-03-02T08:52:53.279Z,17.77
2023-03-02T08:57:49.907Z,16.98
2023-03-02T09:02:46.337Z,17.88
2023-03-02T09:07:42.730Z,15.43
2023-03-02T09:12:40.232Z,15.02
2023-03-02T09:17:36.683Z,16.40
2023-03-02T09:22:35.772Z,16.58
2023-03-02T09:27:32.538Z,14.18
2023-03-02T09:32:29.077Z,14.52
2023-03-02T09:37:27.648Z,14.18
2023-03-02T09:42:27.098Z,14.35
2023-03-02T09:48:03.790Z,13.77
2023-03-02T09:53:29.291Z,13.93
2023-03-02T09:58:31.686Z,13.60
2023-03-02T10:03:36.447Z,15.50
2023-03-02T10:08:37.840Z,13.65
2023-03-02T10:14:04.006Z,14.30
2023-03-02T10:19:17.389Z,14.32
2023-03-02T10:24:35.229Z,14.35
2023-03-02T10:29:59.963Z,15.07
2023-03-02T10:34:57.952Z,15.32
2023-03-02T10:39:55.752Z,14.77
2023-03-02T10:44:59.295Z,14.75
2023-03-02T10:49:57.604Z,14.60
2023-03-02T10:55:14.169Z,13.77
2023-03-02T11:00:11.386Z,13.00
2023-03-02T11:05:33.788Z,14.90
2023-03-02T11:10:50.487Z,13.73
2023-03-02T11:15:50.141Z,13.43
2023-03-02T11:20:52.097Z,12.85
2023-03-02T11:25:58.513Z,13.35
2023-03-02T11:30:59.021Z,13.60
2023-03-02T11:36:25.424Z,12.82
2023-03-02T11:41:31.042Z,12.77
2023-03-02T11:46:33.019Z,12.52
2023-03-02T11:51:35.448Z,11.87
2023-03-02T11:56:36.460Z,12.70
2023-03-02T12:01:36.445Z,12.23
2023-03-02T12:06:40.324Z,14.27
2023-03-02T12:11:40.755Z,14.23
2023-03-02T12:16:40.893Z,15.10
2023-03-02T12:21:42.373Z,13.95
2023-03-02T12:26:38.961Z,14.57
2023-03-02T12:31:47.353Z,13.63
2023-03-02T12:36:44.404Z,13.40
2023-03-02T12:42:09.546Z,13.27
2023-03-02T12:47:16.195Z,12.95
2023-03-02T12:52:34.738Z,12.82
2023-03-02T12:57:31.738Z,12.70
2023-03-02T13:02:33.754Z,12.35
2023-03-02T13:07:37.455Z,13.27
2023-03-02T13:12:35.880Z,12.38
2023-03-02T13:17:32.947Z,12.50
2023-03-02T13:22:29.896Z,12.95
2023-03-02T13:27:28.043Z,12.38
2023-03-02T13:32:26.747Z,11.43
2023-03-02T13:37:43.667Z,9.20
2023-03-02T13:42:40.960Z,10.05
2023-03-02T13:47:37.454Z,10.20
2023-03-02T13:52:34.165Z,9.95
2023-03-02T13:57:32.275Z,9.77
2023-03-02T14:02:30.702Z,9.60
2023-03-02T14:07:27.157Z,9.43
2023-03-02T14:12:30.637Z,9.27
2023-03-02T14:17:27.421Z,9.38
2023-03-02T14:22:26.538Z,9.95
2023-03-02T14:27:26.960Z,8.02
2023-03-02T14:32:23.454Z,9.40
2023-03-02T14:37:25.624Z,10.52
2023-03-02T14:42:23.025Z,9.60
2023-03-02T14:47:19.658Z,9.85
2023-03-02T14:52:30.121Z,10.25
2023-03-02T14:57:28.567Z,9.65
2023-03-02T15:02:26.915Z,10.55
2023-03-02T15:07:25.522Z,10.05
2023-03-02T15:12:21.941Z,9.70
2023-03-02T15:17:18.385Z,9.90
2023-03-02T15:22:14.946Z,10.90
2023-03-02T15:27:11.445Z,10.38
2023-03-02T15:32:07.978Z,10.50
2023-03-02T15:37:04.438Z,11.48
2023-03-02T15:42:01.091Z,10.13
2023-03-02T15:46:59.154Z,10.40
2023-03-02T15:51:59.655Z,10.00
2023-03-02T15:56:56.239Z,11.48
2023-03-02T16:01:53.842Z,10.65
2023-03-02T16:06:50.348Z,10.23
2023-03-02T16:11:49.014Z,10.55
2023-03-02T16:16:46.460Z,10.02
2023-03-02T16:21:42.954Z,10.00
2023-03-02T16:26:39.424Z,10.48
2023-03-02T16:31:37.878Z,10.38
2023-03-02T16:36:36.559Z,10.98
2023-03-02T16:41:33.951Z,10.00
2023-03-02T16:46:32.323Z,10.15
2023-03-02T16:51:28.776Z,10.73
2023-03-02T16:56:25.273Z,11.68
2023-03-02T17:01:21.944Z,10.27
2023-03-02T17:06:20.745Z,12.38
2023-03-02T17:11:18.231Z,12.13
2023-03-02T17:16:16.638Z,13.27
2023-03-02T17:21:14.986Z,12.45
2023-03-02T17:26:11.505Z,13.25
2023-03-02T17:31:08.576Z,14.45
2023-03-02T17:36:07.395Z,15.27
2023-03-02T17:41:05.474Z,14.52
2023-03-02T17:46:20.530Z,14.45
2023-03-02T17:51:17.497Z,14.05
2023-03-02T17:56:15.324Z,15.13
2023-03-02T18:01:12.716Z,14.15
2023-03-02T18:06:09.165Z,15.32
2023-03-02T18:11:06.140Z,15.77
2023-03-02T18:16:02.840Z,15.00
2023-03-02T18:20:59.553Z,15.32
2023-03-02T18:25:56.093Z,14.82
2023-03-02T18:30:52.518Z,13.90
2023-03-02T18:35:49.117Z,15.35
2023-03-02T18:40:45.779Z,15.10
2023-03-02T18:45:42.208Z,14.27
2023-03-02T18:50:39.556Z,15.25
2023-03-02T18:55:40.290Z,14.20
2023-03-02T19:00:37.466Z,15.20
2023-03-02T19:05:33.891Z,15.20
2023-03-02T19:10:30.362Z,14.52
2023-03-02T19:15:26.942Z,14.35
2023-03-02T19:20:23.390Z,15.80
2023-03-02T19:25:20.120Z,16.30
2023-03-02T19:30:22.873Z,16.15
2023-03-02T19:35:24.796Z,16.35
2023-03-02T19:40:24.757Z,17.30
2023-03-02T19:45:28.492Z,16.00
2023-03-02T19:50:26.988Z,16.98
2023-03-02T19:55:24.395Z,18.55
2023-03-02T20:00:21.146Z,17.00
2023-03-02T20:05:17.684Z,17.45
2023-03-02T20:10:34.397Z,17.73
2023-03-02T20:15:33.280Z,17.88
2023-03-02T20:20:30.533Z,18.25
2023-03-02T20:25:28.054Z,18.40
2023-03-02T20:30:37.805Z,17.73
2023-03-02T20:35:39.863Z,19.20
2023-03-02T20:40:37.280Z,19.98
2023-03-02T20:45:34.212Z,19.33
2023-03-02T20:50:33.111Z,20.40
2023-03-02T20:55:29.584Z,17.77
2023-03-02T21:00:28.930Z,19.95
2023-03-02T21:05:26.826Z,20.45
2023-03-02T21:10:28.504Z,18.80
2023-03-02T21:15:27.141Z,19.15
2023-03-02T21:20:25.662Z,19.27
2023-03-02T21:25:22.058Z,19.60
2023-03-02T21:30:30.616Z,20.95
2023-03-02T21:35:27.135Z,19.80
2023-03-02T21:40:31.343Z,19.92
2023-03-02T21:45:29.079Z,19.30
2023-03-02T21:50:28.225Z,19.98
2023-03-02T21:55:26.871Z,19.17
2023-03-02T22:00:32.701Z,20.13
2023-03-02T22:05:29.381Z,21.02
2023-03-02T22:10:46.290Z,22.17
2023-03-02T22:15:46.557Z,23.40
2023-03-02T22:20:45.218Z,20.75
2023-03-02T22:25:45.447Z,21.00
2023-03-02T22:30:41.920Z,21.95
2023-03-02T22:35:38.436Z,23.20
2023-03-02T22:40:35.660Z,21.65
2023-03-02T22:45:32.130Z,23.08
2023-03-02T22:50:30.554Z,21.58
2023-03-02T22:55:39.291Z,21.98
2023-03-02T23:00:40.550Z,25.85
2023-03-02T23:05:37.228Z,22.85
2023-03-02T23:10:33.747Z,22.23
2023-03-02T23:15:34.994Z,24.60
2023-03-02T23:20:33.681Z,25.05
2023-03-02T23:25:30.119Z,22.98
2023-03-02T23:30:26.974Z,21.73
2023-03-02T23:35:23.598Z,23.52
2023-03-02T23:40:21.533Z,22.67
2023-03-02T23:45:18.578Z,24.30
2023-03-02T23:50:15.019Z,22.90
2023-03-02T23:55:11.638Z,22.10
